Observation data for Northwest San Angelo on 01/18/2019      Previous  Date  Next       Current Mesonet Observations  Soil Data  Daily Summary Page  Observations in Plain Language
KASU 180600Z 00000KT 07/03 A3008 RMK A01 T00730027  RH  074%=      5-min Rain = 0
KASU 180605Z 15002KT 07/03 A3007 RMK A01 T00730026  RH  073%=      5-min Rain = 0
KASU 180610Z 16003KT 07/03 A3007 RMK A01 T00680025  RH  076%=      5-min Rain = 0
KASU 180615Z 16002KT 07/03 A3007 RMK A01 T00650025  RH  077%=      5-min Rain = 0
KASU 180620Z 20002KT 07/03 A3006 RMK A01 T00650027  RH  078%=      5-min Rain = 0
KASU 180625Z 20002KT 07/03 A3006 RMK A01 T00660027  RH  078%=      5-min Rain = 0
KASU 180630Z 19002KT 07/03 A3006 RMK A01 T00670029  RH  078%=      5-min Rain = 0
KASU 180635Z 17002KT 07/03 A3005 RMK A01 T00670029  RH  078%=      5-min Rain = 0
KASU 180640Z 15001KT 06/03 A3005 RMK A01 T00640027  RH  078%=      5-min Rain = 0
KASU 180645Z 33001KT 06/03 A3006 RMK A01 T00630028  RH  080%=      5-min Rain = 0
KASU 180650Z 34003KT 06/03 A3006 RMK A01 T00600027  RH  081%=      5-min Rain = 0
KASU 180655Z 34003KT 06/03 A3006 RMK A01 T00600028  RH  081%=      5-min Rain = 0
KASU 180700Z 34003KT 06/03 A3006 RMK A01 T00610028  RH  081%=      5-min Rain = 0
KASU 180705Z 33003KT 06/03 A3006 RMK A01 T00610028  RH  080%=      5-min Rain = 0
KASU 180710Z 34002KT 06/03 A3005 RMK A01 T00610027  RH  080%=      5-min Rain = 0
KASU 180715Z 33002KT 06/03 A3005 RMK A01 T00620028  RH  080%=      5-min Rain = 0
KASU 180720Z 33002KT 06/03 A3005 RMK A01 T00630028  RH  079%=      5-min Rain = 0
KASU 180725Z 34001KT 07/03 A3005 RMK A01 T00660030  RH  079%=      5-min Rain = 0
KASU 180730Z 23000KT 07/03 A3004 RMK A01 T00670029  RH  079%=      5-min Rain = 0
KASU 180735Z 23001KT 07/03 A3004 RMK A01 T00660029  RH  079%=      5-min Rain = 0
KASU 180740Z 20001KT 07/03 A3004 RMK A01 T00660029  RH  079%=      5-min Rain = 0
KASU 180745Z 19002KT 07/03 A3004 RMK A01 T00670030  RH  079%=      5-min Rain = 0
KASU 180750Z 18003KT 07/03 A3004 RMK A01 T00700031  RH  077%=      5-min Rain = 0
KASU 180755Z 17003KT 07/03 A3004 RMK A01 T00730031  RH  076%=      5-min Rain = 0
KASU 180800Z 17001KT 08/03 A3003 RMK A01 T00780032  RH  074%=      5-min Rain = 0
KASU 180805Z 00000KT 08/03 A3003 RMK A01 T00760029  RH  073%=      5-min Rain = 0
KASU 180810Z 00000KT 08/03 A3003 RMK A01 T00790031  RH  073%=      5-min Rain = 0
KASU 180815Z 00000KT 08/03 A3003 RMK A01 T00820030  RH  071%=      5-min Rain = 0
KASU 180820Z 06000KT 08/03 A3003 RMK A01 T00820029  RH  071%=      5-min Rain = 0
KASU 180825Z 04001KT 08/03 A3003 RMK A01 T00820030  RH  071%=      5-min Rain = 0
KASU 180830Z 04001KT 08/03 A3002 RMK A01 T00820030  RH  071%=      5-min Rain = 0
KASU 180835Z 07002KT 08/03 A3002 RMK A01 T00820030  RH  071%=      5-min Rain = 0
KASU 180840Z 08001KT 09/03 A3002 RMK A01 T00850030  RH  069%=      5-min Rain = 0
KASU 180845Z 10000KT 09/03 A3002 RMK A01 T00850030  RH  069%=      5-min Rain = 0
KASU 180850Z 15000KT 08/03 A3002 RMK A01 T00820030  RH  071%=      5-min Rain = 0
KASU 180855Z 18000KT 08/03 A3002 RMK A01 T00820031  RH  071%=      5-min Rain = 0
KASU 180900Z 00000KT 08/03 A3002 RMK A01 T00820031  RH  072%=      5-min Rain = 0
KASU 180905Z 07000KT 08/03 A3001 RMK A01 T00800033  RH  073%=      5-min Rain = 0
KASU 180910Z 09001KT 08/03 A3001 RMK A01 T00840033  RH  071%=      5-min Rain = 0
KASU 180915Z 22000KT 09/03 A3001 RMK A01 T00870033  RH  070%=      5-min Rain = 0
KASU 180920Z 05000KT 09/03 A3001 RMK A01 T00860032  RH  070%=      5-min Rain = 0
KASU 180925Z 07000KT 09/03 A30 RMK A01 T00860032  RH  070%=      5-min Rain = 0
KASU 180930Z 06000KT 09/03 A30 RMK A01 T00870032  RH  070%=      5-min Rain = 0
KASU 180935Z 20000KT 08/03 A30 RMK A01 T00840032  RH  071%=      5-min Rain = 0
KASU 180940Z 20002KT 08/04 A30 RMK A01 T00840035  RH  072%=      5-min Rain = 0
KASU 180945Z 21002KT 09/04 A30 RMK A01 T00920038  RH  070%=      5-min Rain = 0
KASU 180950Z 24001KT 10/04 A30 RMK A01 T00960038  RH  069%=      5-min Rain = 0
KASU 180955Z 29002KT 10/04 A30 RMK A01 T00950035  RH  067%=      5-min Rain = 0
KASU 181000Z 29003KT 08/03 A2999 RMK A01 T00830033  RH  072%=      5-min Rain = 0
KASU 181005Z 27002KT 09/04 A2999 RMK A01 T00890036  RH  071%=      5-min Rain = 0
KASU 181010Z 25002KT 08/03 A2999 RMK A01 T00840033  RH  072%=      5-min Rain = 0
KASU 181015Z 26002KT 08/03 A2999 RMK A01 T00810033  RH  073%=      5-min Rain = 0
KASU 181020Z 26001KT 08/03 A2998 RMK A01 T00770032  RH  074%=      5-min Rain = 0
KASU 181025Z 26001KT 08/03 A2998 RMK A01 T00770033  RH  075%=      5-min Rain = 0
KASU 181030Z 24001KT 08/03 A2998 RMK A01 T00750031  RH  075%=      5-min Rain = 0
KASU 181035Z 18001KT 07/03 A2997 RMK A01 T00720031  RH  077%=      5-min Rain = 0
KASU 181040Z 19000KT 07/03 A2997 RMK A01 T00720032  RH  077%=      5-min Rain = 0
KASU 181045Z 21000KT 07/04 A2997 RMK A01 T00740035  RH  078%=      5-min Rain = 0
KASU 181050Z 33001KT 07/03 A2997 RMK A01 T00740033  RH  077%=      5-min Rain = 0
KASU 181055Z 35004KT 07/03 A2997 RMK A01 T00670029  RH  078%=      5-min Rain = 0
KASU 181100Z 01003KT 07/04 A2997 RMK A01 T00720036  RH  079%=      5-min Rain = 0
KASU 181105Z 03000KT 08/04 A2997 RMK A01 T00770037  RH  077%=      5-min Rain = 0
KASU 181110Z 35001KT 08/04 A2996 RMK A01 T00800036  RH  075%=      5-min Rain = 0
KASU 181115Z 35003KT 08/03 A2996 RMK A01 T00800034  RH  074%=      5-min Rain = 0
KASU 181120Z 34003KT 08/03 A2996 RMK A01 T00790033  RH  074%=      5-min Rain = 0
KASU 181125Z 29001KT 07/03 A2996 RMK A01 T00720029  RH  075%=      5-min Rain = 0
KASU 181130Z 22001KT 07/03 A2995 RMK A01 T00710031  RH  077%=      5-min Rain = 0
KASU 181135Z 20000KT 07/03 A2995 RMK A01 T00730033  RH  077%=      5-min Rain = 0
KASU 181140Z 35000KT 08/04 A2995 RMK A01 T00760036  RH  077%=      5-min Rain = 0
KASU 181145Z 01001KT 08/04 A2994 RMK A01 T00800038  RH  076%=      5-min Rain = 0
KASU 181150Z 04000KT 08/04 A2994 RMK A01 T00780035  RH  076%=      5-min Rain = 0
KASU 181155Z 00000KT 07/03 A2994 RMK A01 T00740032  RH  076%=      5-min Rain = 0
KASU 181200Z 19000KT 07/03 A2994 RMK A01 T00710032  RH  078%=      5-min Rain = 0
KASU 181205Z 19001KT 07/04 A2994 RMK A01 T00730035  RH  078%=      5-min Rain = 0
KASU 181210Z 18001KT 08/04 A2994 RMK A01 T00750037  RH  078%=      5-min Rain = 0
KASU 181215Z 18000KT 08/04 A2994 RMK A01 T00800041  RH  078%=      5-min Rain = 0
KASU 181220Z 00000KT 09/05 A2994 RMK A01 T00870045  RH  076%=      5-min Rain = 0
KASU 181225Z 08001KT 09/04 A2994 RMK A01 T00900043  RH  074%=      5-min Rain = 0
KASU 181230Z 06002KT 08/03 A2994 RMK A01 T00780032  RH  074%=      5-min Rain = 0
KASU 181235Z 04002KT 07/03 A2994 RMK A01 T00700030  RH  077%=      5-min Rain = 0
KASU 181240Z 07002KT 07/03 A2994 RMK A01 T00690032  RH  079%=      5-min Rain = 0
KASU 181245Z 07003KT 07/04 A2994 RMK A01 T00730039  RH  080%=      5-min Rain = 0
KASU 181250Z 09002KT 08/04 A2994 RMK A01 T00760039  RH  079%=      5-min Rain = 0
KASU 181255Z 11002KT 08/04 A2994 RMK A01 T00770039  RH  078%=      5-min Rain = 0
KASU 181300Z 14002KT 08/04 A2993 RMK A01 T00770037  RH  078%=      5-min Rain = 0
KASU 181305Z 15002KT 08/04 A2993 RMK A01 T00760038  RH  078%=      5-min Rain = 0
KASU 181310Z 14002KT 08/04 A2993 RMK A01 T00780041  RH  079%=      5-min Rain = 0
KASU 181315Z 12002KT 08/04 A2993 RMK A01 T00800043  RH  079%=      5-min Rain = 0
KASU 181320Z 11003KT 08/04 A2993 RMK A01 T00750039  RH  079%=      5-min Rain = 0
KASU 181325Z 08003KT 07/04 A2993 RMK A01 T00730040  RH  081%=      5-min Rain = 0
KASU 181330Z 07003KT 08/04 A2993 RMK A01 T00750044  RH  082%=      5-min Rain = 0
KASU 181335Z 07001KT 08/05 A2994 RMK A01 T00780048  RH  083%=      5-min Rain = 0
KASU 181340Z 07001KT 08/04 A2994 RMK A01 T00750043  RH  082%=      5-min Rain = 0
KASU 181345Z 07002KT 07/04 A2994 RMK A01 T00720041  RH  083%=      5-min Rain = 0
KASU 181350Z 07002KT 07/05 A2993 RMK A01 T00740045  RH  084%=      5-min Rain = 0
KASU 181355Z 10002KT 08/05 A2993 RMK A01 T00750047  RH  084%=      5-min Rain = 0
KASU 181400Z 12003KT 07/05 A2993 RMK A01 T00740046  RH  084%=      5-min Rain = 0
KASU 181405Z 13003KT 07/04 A2993 RMK A01 T00730044  RH  084%=      5-min Rain = 0
KASU 181410Z 13004KT 07/04 A2992 RMK A01 T00700042  RH  084%=      5-min Rain = 0
KASU 181415Z 12004KT 07/04 A2992 RMK A01 T00720044  RH  084%=      5-min Rain = 0
KASU 181420Z 12002KT 07/04 A2992 RMK A01 T00720044  RH  084%=      5-min Rain = 0
KASU 181425Z 12002KT 08/05 A2992 RMK A01 T00760048  RH  084%=      5-min Rain = 0
KASU 181430Z 12002KT 08/05 A2992 RMK A01 T00760047  RH  084%=      5-min Rain = 0
KASU 181435Z 16001KT 08/05 A2992 RMK A01 T00770049  RH  084%=      5-min Rain = 0
KASU 181440Z 22000KT 08/05 A2992 RMK A01 T00790050  RH  084%=      5-min Rain = 0
KASU 181445Z 21001KT 08/05 A2992 RMK A01 T00790049  RH  083%=      5-min Rain = 0
KASU 181450Z 19001KT 08/05 A2992 RMK A01 T00820051  RH  082%=      5-min Rain = 0
KASU 181455Z 19001KT 09/05 A2992 RMK A01 T00860053  RH  082%=      5-min Rain = 0
KASU 181500Z 17002KT 10/06 A2992 RMK A01 T00950060  RH  081%=      5-min Rain = 0
KASU 181505Z 18002KT 11/07 A2992 RMK A01 T01080066  RH  077%=      5-min Rain = 0
KASU 181510Z 20003KT 11/06 A2992 RMK A01 T01140064  RH  073%=      5-min Rain = 0
KASU 181515Z 20003KT 11/06 A2992 RMK A01 T01140064  RH  073%=      5-min Rain = 0
KASU 181520Z 19002KT 12/06 A2992 RMK A01 T01150063  RH  072%=      5-min Rain = 0
KASU 181525Z 20003KT 12/07 A2992 RMK A01 T01170067  RH  073%=      5-min Rain = 0
KASU 181530Z 21005KT 13/07 A2992 RMK A01 T01260068  RH  070%=      5-min Rain = 0
KASU 181535Z 21006KT 13/07 A2992 RMK A01 T01300065  RH  066%=      5-min Rain = 0
KASU 181540Z 20007G12KT 13/06 A2992 RMK A01 T01310064  RH  065%=      5-min Rain = 0
KASU 181545Z 20006KT 13/06 A2992 RMK A01 T01300064  RH  066%=      5-min Rain = 0
KASU 181550Z 19007KT 13/07 A2991 RMK A01 T01320065  RH  065%=      5-min Rain = 0
KASU 181555Z 19006KT 13/07 A2991 RMK A01 T01310065  RH  066%=      5-min Rain = 0
KASU 181600Z 18005KT 13/07 A2991 RMK A01 T01330065  RH  065%=      5-min Rain = 0
KASU 181605Z 18005KT 14/07 A2991 RMK A01 T01390067  RH  063%=      5-min Rain = 0
KASU 181610Z 17004KT 15/07 A2991 RMK A01 T01470069  RH  061%=      5-min Rain = 0
KASU 181615Z 17005KT 15/07 A2991 RMK A01 T01510068  RH  059%=      5-min Rain = 0
KASU 181620Z 16006KT 15/07 A2991 RMK A01 T01540068  RH  058%=      5-min Rain = 0
KASU 181625Z 18006KT 16/07 A2991 RMK A01 T01590071  RH  057%=      5-min Rain = 0
KASU 181630Z 18007KT 16/07 A2991 RMK A01 T01630070  RH  056%=      5-min Rain = 0
KASU 181635Z 18008KT 17/07 A2991 RMK A01 T01650070  RH  055%=      5-min Rain = 0
KASU 181640Z 19009KT 17/07 A2991 RMK A01 T01670071  RH  054%=      5-min Rain = 0
KASU 181645Z 19009KT 17/07 A2991 RMK A01 T01720071  RH  053%=      5-min Rain = 0
KASU 181650Z 20009KT 17/07 A2991 RMK A01 T01730071  RH  052%=      5-min Rain = 0
KASU 181655Z 20010KT 18/07 A2991 RMK A01 T01760071  RH  052%=      5-min Rain = 0
KASU 181700Z 21010KT 18/07 A2991 RMK A01 T01800072  RH  051%=      5-min Rain = 0
KASU 181705Z 22012G18KT 18/07 A2991 RMK A01 T01810073  RH  050%=      5-min Rain = 0
KASU 181710Z 21011G16KT 18/07 A2991 RMK A01 T01840073  RH  050%=      5-min Rain = 0
KASU 181715Z 21013G18KT 19/07 A299 RMK A01 T01850072  RH  049%=      5-min Rain = 0
KASU 181720Z 22013G18KT 19/07 A299 RMK A01 T01860073  RH  049%=      5-min Rain = 0
KASU 181725Z 21013G18KT 19/07 A2989 RMK A01 T01890074  RH  049%=      5-min Rain = 0
KASU 181730Z 21012G18KT 19/07 A2989 RMK A01 T01900074  RH  048%=      5-min Rain = 0
KASU 181735Z 21013G19KT 19/07 A2989 RMK A01 T01920073  RH  047%=      5-min Rain = 0
KASU 181740Z 21011KT 20/08 A2989 RMK A01 T01960076  RH  047%=      5-min Rain = 0
KASU 181745Z 20013KT 20/08 A2988 RMK A01 T01980075  RH  046%=      5-min Rain = 0
KASU 181750Z 21013KT 20/08 A2987 RMK A01 T01990075  RH  046%=      5-min Rain = 0
KASU 181755Z 21012G17KT 20/08 A2987 RMK A01 T02030076  RH  045%=      5-min Rain = 0
KASU 181800Z 21012KT 21/08 A2987 RMK A01 T02060078  RH  045%=      5-min Rain = 0
KASU 181805Z 20014G19KT 21/07 A2987 RMK A01 T02090074  RH  043%=      5-min Rain = 0
KASU 181810Z 20010KT 22/08 A2986 RMK A01 T02150078  RH  042%=      5-min Rain = 0
KASU 181815Z 20011KT 22/08 A2985 RMK A01 T02180076  RH  041%=      5-min Rain = 0
KASU 181820Z 20013KT 22/07 A2984 RMK A01 T02190074  RH  040%=      5-min Rain = 0
KASU 181825Z 21012KT 22/07 A2984 RMK A01 T02190071  RH  039%=      5-min Rain = 0
KASU 181830Z 21012G18KT 22/07 A2983 RMK A01 T02220072  RH  039%=      5-min Rain = 0
KASU 181835Z 20012G17KT 23/07 A2983 RMK A01 T02260072  RH  038%=      5-min Rain = 0
KASU 181840Z 21013G20KT 23/07 A2982 RMK A01 T02270067  RH  036%=      5-min Rain = 0
KASU 181845Z 21018G25KT 23/05 A2981 RMK A01 T02300051  RH  032%=      5-min Rain = 0
KASU 181850Z 22014G23KT 23/05 A2981 RMK A01 T02320053  RH  032%=      5-min Rain = 0
KASU 181855Z 22016G24KT 24/05 A298 RMK A01 T02350053  RH  032%=      5-min Rain = 0
KASU 181900Z 23013G21KT 24/04 A2979 RMK A01 T02370042  RH  029%=      5-min Rain = 0
KASU 181905Z 22013G19KT 24/05 A2979 RMK A01 T02420050  RH  029%=      5-min Rain = 0
KASU 181910Z 23018G25KT 24/03 A2979 RMK A01 T02420026  RH  025%=      5-min Rain = 0
KASU 181915Z 24015G21KT 25/03 A2979 RMK A01 T02460027  RH  024%=      5-min Rain = 0
KASU 181920Z 25016G23KT 25/03 A2978 RMK A01 T02450025  RH  024%=      5-min Rain = 0
KASU 181925Z 25017G26KT 25/02 A2978 RMK A01 T02470024  RH  024%=      5-min Rain = 0
KASU 181930Z 24015G24KT 24/03 A2977 RMK A01 T02440025  RH  024%=      5-min Rain = 0
KASU 181935Z 24018G28KT 25/02 A2977 RMK A01 T02480021  RH  023%=      5-min Rain = 0
KASU 181940Z 25021G29KT 24/01 A2976 RMK A01 T02430011  RH  022%=      5-min Rain = 0
KASU 181945Z 25017G24KT 24/01 A2976 RMK A01 T02410013  RH  023%=      5-min Rain = 0
KASU 181950Z 24020G27KT 24/01 A2975 RMK A01 T02440013  RH  022%=      5-min Rain = 0
KASU 181955Z 24020G28KT 25/01 A2975 RMK A01 T02450013  RH  022%=      5-min Rain = 0
KASU 182000Z 24019G27KT 25/01 A2974 RMK A01 T02470014  RH  022%=      5-min Rain = 0
KASU 182005Z 24017G25KT 25/01 A2974 RMK A01 T02490014  RH  022%=      5-min Rain = 0
KASU 182010Z 26019G24KT 25/01 A2974 RMK A01 T02490006  RH  021%=      5-min Rain = 0
KASU 182015Z 25019G29KT 25/01 A2974 RMK A01 T02490005  RH  020%=      5-min Rain = 0
KASU 182020Z 25017G30KT 25/01 A2973 RMK A01 T02500007  RH  021%=      5-min Rain = 0
KASU 182025Z 24020G29KT 25/00 A2973 RMK A01 T02480003  RH  020%=      5-min Rain = 0
KASU 182030Z 25021G34KT 25/00 A2973 RMK A01 T02480002  RH  020%=      5-min Rain = 0
KASU 182035Z 25020G30KT 25/00 A2972 RMK A01 T02470001  RH  020%=      5-min Rain = 0
KASU 182040Z 25019G29KT 25/00 A2972 RMK A01 T02480002  RH  020%=      5-min Rain = 0
KASU 182045Z 27020G28KT 25/00 A2972 RMK A01 T02480004  RH  020%=      5-min Rain = 0
KASU 182050Z 27017G24KT 25/01 A2972 RMK A01 T02470007  RH  021%=      5-min Rain = 0
KASU 182055Z 25018G29KT 24/01 A2972 RMK A01 T02420005  RH  021%=      5-min Rain = 0
KASU 182100Z 26019G29KT 24/00 A2972 RMK A01 T02390002  RH  021%=      5-min Rain = 0
KASU 182105Z 26018G24KT 24/00 A2972 RMK A01 T02370003  RH  022%=      5-min Rain = 0
KASU 182110Z 26018G26KT 24/00 A2971 RMK A01 T023700-0  RH  021%=      5-min Rain = 0
KASU 182115Z 25016G25KT 24/00 A2971 RMK A01 T02400003  RH  021%=      5-min Rain = 0
KASU 182120Z 26015G21KT 25/01 A2971 RMK A01 T02450007  RH  021%=      5-min Rain = 0
KASU 182125Z 26017G26KT 24/01 A2971 RMK A01 T02440007  RH  021%=      5-min Rain = 0
KASU 182130Z 26015G24KT 24/01 A2971 RMK A01 T02400005  RH  021%=      5-min Rain = 0
KASU 182135Z 26016G23KT 24/01 A297 RMK A01 T02380005  RH  022%=      5-min Rain = 0
KASU 182140Z 26018G29KT 24/00 A297 RMK A01 T02360002  RH  022%=      5-min Rain = 0
KASU 182145Z 27016G22KT 24/00 A297 RMK A01 T02370003  RH  022%=      5-min Rain = 0
KASU 182150Z 27017G26KT 24/00 A297 RMK A01 T02370001  RH  021%=      5-min Rain = 0
KASU 182155Z 28018G28KT 24/01 A297 RMK A01 T02390005  RH  022%=      5-min Rain = 0
KASU 182200Z 28019G28KT 24/00 A297 RMK A01 T02390004  RH  021%=      5-min Rain = 0
KASU 182205Z 27018G25KT 24/00 A297 RMK A01 T02370003  RH  022%=      5-min Rain = 0
KASU 182210Z 27014G21KT 24/01 A297 RMK A01 T02380007  RH  022%=      5-min Rain = 0
KASU 182215Z 27015G27KT 24/01 A2971 RMK A01 T02380008  RH  022%=      5-min Rain = 0
KASU 182220Z 27018G28KT 24/00 A2971 RMK A01 T02370002  RH  021%=      5-min Rain = 0
KASU 182225Z 27019G26KT 24/M00 A2971 RMK A01 T02351003  RH  021%=      5-min Rain = 0
KASU 182230Z 28015G23KT 24/00 A2971 RMK A01 T02350001  RH  021%=      5-min Rain = 0
KASU 182235Z 28017G23KT 23/M00 A2971 RMK A01 T02341001  RH  021%=      5-min Rain = 0
KASU 182240Z 28017G25KT 23/00 A2971 RMK A01 T02340002  RH  022%=      5-min Rain = 0
KASU 182245Z 27015G23KT 23/00 A2971 RMK A01 T02330003  RH  022%=      5-min Rain = 0
KASU 182250Z 27015G20KT 23/00 A2971 RMK A01 T02320003  RH  022%=      5-min Rain = 0
KASU 182255Z 27016G24KT 23/00 A2971 RMK A01 T02310003  RH  022%=      5-min Rain = 0
KASU 182300Z 27015G22KT 23/00 A2971 RMK A01 T02300002  RH  022%=      5-min Rain = 0
KASU 182305Z 27018G26KT 23/00 A2971 RMK A01 T02290000  RH  022%=      5-min Rain = 0
KASU 182310Z 27016G24KT 23/00 A2971 RMK A01 T022700-0  RH  022%=      5-min Rain = 0
KASU 182315Z 28015G20KT 23/00 A2971 RMK A01 T02260000  RH  023%=      5-min Rain = 0
KASU 182320Z 28014G21KT 22/00 A2971 RMK A01 T02240001  RH  023%=      5-min Rain = 0
KASU 182325Z 28015G21KT 22/00 A2971 RMK A01 T02230001  RH  023%=      5-min Rain = 0
KASU 182330Z 27013KT 22/00 A2971 RMK A01 T02210002  RH  024%=      5-min Rain = 0
KASU 182335Z 27013G20KT 22/00 A2971 RMK A01 T02200002  RH  024%=      5-min Rain = 0
KASU 182340Z 27011G17KT 22/00 A2971 RMK A01 T02170003  RH  024%=      5-min Rain = 0
KASU 182345Z 27013G20KT 22/00 A2971 RMK A01 T021700-0  RH  024%=      5-min Rain = 0
KASU 182350Z 27014G21KT 22/M00 A2971 RMK A01 T02161002  RH  024%=      5-min Rain = 0
KASU 182355Z 27012G19KT 21/M00 A2971 RMK A01 T02121001  RH  024%=      5-min Rain = 0
KASU 190000Z 28013G19KT 21/M00 A2971 RMK A01 T02131001  RH  024%=      5-min Rain = 0
KASU 190005Z 28012G17KT 21/00 A2971 RMK A01 T02120000  RH  025%=      5-min Rain = 0
KASU 190010Z 28012G19KT 21/00 A2971 RMK A01 T02100001  RH  025%=      5-min Rain = 0
KASU 190015Z 28014G20KT 21/00 A2971 RMK A01 T02110000  RH  025%=      5-min Rain = 0
KASU 190020Z 28013G18KT 21/00 A2971 RMK A01 T02110001  RH  025%=      5-min Rain = 0
KASU 190025Z 28013G22KT 21/00 A297 RMK A01 T02110000  RH  025%=      5-min Rain = 0
KASU 190030Z 28015G21KT 21/M00 A2971 RMK A01 T02131001  RH  024%=      5-min Rain = 0
KASU 190035Z 27013G19KT 21/00 A2971 RMK A01 T02120000  RH  025%=      5-min Rain = 0
KASU 190040Z 28014G22KT 21/00 A2971 RMK A01 T02100001  RH  025%=      5-min Rain = 0
KASU 190045Z 28014G21KT 21/00 A2971 RMK A01 T02100001  RH  025%=      5-min Rain = 0
KASU 190050Z 28015G24KT 21/00 A2972 RMK A01 T02110001  RH  025%=      5-min Rain = 0
KASU 190055Z 28013KT 21/00 A2972 RMK A01 T02090002  RH  025%=      5-min Rain = 0
KASU 190100Z 28012KT 21/00 A2972 RMK A01 T02060004  RH  026%=      5-min Rain = 0
KASU 190105Z 28013G20KT 21/01 A2973 RMK A01 T02050005  RH  026%=      5-min Rain = 0
KASU 190110Z 28018G29KT 21/01 A2973 RMK A01 T02060007  RH  027%=      5-min Rain = 0
KASU 190115Z 29018G29KT 20/01 A2974 RMK A01 T02010010  RH  028%=      5-min Rain = 0
KASU 190120Z 30020G31KT 20/01 A2974 RMK A01 T01960013  RH  030%=      5-min Rain = 0
KASU 190125Z 30019G26KT 19/01 A2974 RMK A01 T01920014  RH  031%=      5-min Rain = 0
KASU 190130Z 30023G30KT 19/01 A2974 RMK A01 T01900011  RH  030%=      5-min Rain = 0
KASU 190135Z 30023G34KT 19/00 A2975 RMK A01 T01880002  RH  029%=      5-min Rain = 0
KASU 190140Z 30020G30KT 19/00 A2975 RMK A01 T018500-0  RH  029%=      5-min Rain = 0
KASU 190145Z 30018G26KT 18/M00 A2975 RMK A01 T01821003  RH  029%=      5-min Rain = 0
KASU 190150Z 30020G28KT 18/M01 A2976 RMK A01 T01811008  RH  028%=      5-min Rain = 0
KASU 190155Z 29017G26KT 18/M01 A2976 RMK A01 T01791009  RH  028%=      5-min Rain = 0
KASU 190200Z 30015G22KT 18/M01 A2977 RMK A01 T01771011  RH  028%=      5-min Rain = 0
KASU 190205Z 30014G21KT 18/M01 A2978 RMK A01 T01761014  RH  028%=      5-min Rain = 0
KASU 190210Z 30016G22KT 18/M02 A2978 RMK A01 T01751017  RH  027%=      5-min Rain = 0
KASU 190215Z 29017G23KT 18/M02 A2979 RMK A01 T01751019  RH  027%=      5-min Rain = 0
KASU 190220Z 29014G22KT 17/M02 A2979 RMK A01 T01731018  RH  027%=      5-min Rain = 0
KASU 190225Z 30016G24KT 17/M02 A298 RMK A01 T01721021  RH  027%=      5-min Rain = 0
KASU 190230Z 30021G35KT 17/M03 A2981 RMK A01 T01711025  RH  026%=      5-min Rain = 0
KASU 190235Z 30025G32KT 17/M03 A2981 RMK A01 T01721029  RH  025%=      5-min Rain = 0
KASU 190240Z 30019G29KT 17/M03 A2982 RMK A01 T01691026  RH  026%=      5-min Rain = 0
KASU 190245Z 29023G31KT 17/M03 A2982 RMK A01 T01691026  RH  026%=      5-min Rain = 0
KASU 190250Z 30020G28KT 17/M03 A2983 RMK A01 T01671025  RH  027%=      5-min Rain = 0
KASU 190255Z 30021G31KT 17/M03 A2983 RMK A01 T01651025  RH  027%=      5-min Rain = 0
KASU 190300Z 29019G28KT 16/M03 A2983 RMK A01 T01631028  RH  027%=      5-min Rain = 0
KASU 190305Z 29017G24KT 16/M03 A2982 RMK A01 T01611030  RH  027%=      5-min Rain = 0
KASU 190310Z 29015G24KT 16/M03 A2982 RMK A01 T01601032  RH  027%=      5-min Rain = 0
KASU 190315Z 29022G30KT 16/M04 A2982 RMK A01 T01631042  RH  024%=      5-min Rain = 0
KASU 190320Z 30023G31KT 17/M05 A2982 RMK A01 T01651046  RH  023%=      5-min Rain = 0
KASU 190325Z 29019G27KT 16/M04 A2983 RMK A01 T01631044  RH  024%=      5-min Rain = 0
KASU 190330Z 29023G32KT 17/M05 A2983 RMK A01 T01651050  RH  023%=      5-min Rain = 0
KASU 190335Z 29022G30KT 17/M05 A2984 RMK A01 T01671052  RH  022%=      5-min Rain = 0
KASU 190340Z 29019G28KT 17/M05 A2984 RMK A01 T01661054  RH  022%=      5-min Rain = 0
KASU 190345Z 29020G26KT 17/M06 A2983 RMK A01 T01661056  RH  021%=      5-min Rain = 0
KASU 190350Z 29017G22KT 16/M05 A2984 RMK A01 T01631053  RH  022%=      5-min Rain = 0
KASU 190355Z 29017G24KT 16/M05 A2984 RMK A01 T01621053  RH  022%=      5-min Rain = 0
KASU 190400Z 29018G26KT 16/M05 A2984 RMK A01 T01631054  RH  022%=      5-min Rain = 0
KASU 190405Z 28017G23KT 16/M06 A2984 RMK A01 T01631055  RH  022%=      5-min Rain = 0
KASU 190410Z 29018G24KT 16/M06 A2984 RMK A01 T01641057  RH  022%=      5-min Rain = 0
KASU 190415Z 29019G24KT 16/M06 A2984 RMK A01 T01631057  RH  022%=      5-min Rain = 0
KASU 190420Z 29018G27KT 16/M06 A2985 RMK A01 T01631057  RH  022%=      5-min Rain = 0
KASU 190425Z 29017G22KT 16/M06 A2986 RMK A01 T01601055  RH  022%=      5-min Rain = 0
KASU 190430Z 30017G29KT 16/M05 A2987 RMK A01 T01591050  RH  023%=      5-min Rain = 0
KASU 190435Z 30017G25KT 16/M04 A2987 RMK A01 T01561041  RH  026%=      5-min Rain = 0
KASU 190440Z 30018G24KT 15/M02 A2988 RMK A01 T01531024  RH  030%=      5-min Rain = 0
KASU 190445Z 30017G24KT 15/M02 A2988 RMK A01 T01481015  RH  033%=      5-min Rain = 0
KASU 190450Z 30015G20KT 14/M01 A2989 RMK A01 T01441008  RH  035%=      5-min Rain = 0
KASU 190455Z 30014G22KT 14/M00 A2989 RMK A01 T01401004  RH  038%=      5-min Rain = 0
KASU 190500Z 30015G21KT 14/M00 A299 RMK A01 T01381001  RH  039%=      5-min Rain = 0
KASU 190505Z 30015G21KT 13/00 A299 RMK A01 T01340002  RH  041%=      5-min Rain = 0
KASU 190510Z 30020G27KT 13/00 A299 RMK A01 T01330004  RH  042%=      5-min Rain = 0
KASU 190515Z 30021G30KT 13/01 A2991 RMK A01 T01300007  RH  044%=      5-min Rain = 0
KASU 190520Z 30022G29KT 13/01 A2991 RMK A01 T01260011  RH  046%=      5-min Rain = 0
KASU 190525Z 31019G29KT 12/01 A2992 RMK A01 T01230014  RH  048%=      5-min Rain = 0
KASU 190530Z 31017G22KT 12/02 A2992 RMK A01 T01200015  RH  049%=      5-min Rain = 0
KASU 190535Z 31016G24KT 12/02 A2992 RMK A01 T01180015  RH  050%=      5-min Rain = 0
KASU 190540Z 31016G22KT 12/02 A2993 RMK A01 T01160016  RH  051%=      5-min Rain = 0
KASU 190545Z 30016G22KT 12/02 A2993 RMK A01 T01150017  RH  052%=      5-min Rain = 0
KASU 190550Z 30017G24KT 11/02 A2994 RMK A01 T01130019  RH  053%=      5-min Rain = 0
KASU 190555Z 31019G26KT 11/02 A2994 RMK A01 T01120020  RH  054%=      5-min Rain = 0

Page generated in 0.015 seconds.